Terminal Aerodrome Forecast
Issued by NWS Caribou, ME

Home | Current Version | Previous Version | Text Only | Print | Product List | Glossary On
Versions: 1 2 3 4 5 6 7 8 9 10 11 12 13 14 15 16 17 18 19 20 21 22
202
FTUS41 KCAR 180526
TAFCAR
TAF
KCAR 180526Z 1806/1906 32010G18KT P6SM BKN018
     FM180900 31008KT P6SM FEW025 SCT250
     FM182200 VRB03KT P6SM BKN035 BKN130
     FM190000 13004KT P6SM BKN030 OVC130
     FM190400 13006KT P6SM VCSH BKN025 OVC090=

USA.gov is the U.S. government's official web portal to all federal, state and local government web resources and services.